Time;durP1;ratioP1;P1;durP2;ratioP2;P2;SDS_P1;SDS_P2;PMS_P1;PMS_P2;Temp;Humidity;BMP_temperature;BMP_pressure;BME280_temperature;BME280_humidity;BME280_pressure;Samples;Min_cycle;Max_cycle;Signal;HPM_P1;HPM_P2
2022/10/25 00:02:19;;;;;;;13.30;8.82;;;;;;;;;;6176359;23;20156;-76
2022/10/25 00:04:44;;;;;;;19.77;8.85;;;;;;;;;;6203034;23;20138;-76
2022/10/25 00:07:10;;;;;;;17.92;9.48;;;;;;;;;;6203722;23;20001;-78
2022/10/25 00:09:36;;;;;;;19.40;10.15;;;;;;;;;;6204001;23;20008;-78
2022/10/25 00:12:02;;;;;;;21.40;10.57;;;;;;;;;;6204021;23;20038;-75
2022/10/25 00:14:28;;;;;;;19.23;8.05;;;;;;;;;;6204265;23;20027;-76
2022/10/25 00:16:54;;;;;;;14.13;9.30;;;;;;;;;;6201286;23;20017;-76
2022/10/25 00:19:20;;;;;;;12.18;8.75;;;;;;;;;;6193703;23;20044;-76
2022/10/25 00:21:46;;;;;;;13.77;8.98;;;;;;;;;;6198103;23;20065;-74
2022/10/25 00:24:12;;;;;;;12.10;9.02;;;;;;;;;;6200082;23;20033;-74
2022/10/25 00:26:41;;;;;;;25.73;10.40;;;;;;;;;;6202270;23;20013;-74
2022/10/25 00:29:07;;;;;;;15.07;10.30;;;;;;;;;;6201113;23;20013;-74
2022/10/25 00:31:33;;;;;;;15.13;8.90;;;;;;;;;;6200913;23;20080;-75
2022/10/25 00:33:59;;;;;;;22.90;9.27;;;;;;;;;;6201446;23;20016;-74
2022/10/25 00:36:25;;;;;;;17.08;10.27;;;;;;;;;;6198977;23;20076;-74
2022/10/25 00:38:51;;;;;;;16.10;8.80;;;;;;;;;;6199150;23;20064;-74
2022/10/25 00:41:19;;;;;;;17.38;10.00;;;;;;;;;;6171809;23;20454;-74
2022/10/25 00:43:46;;;;;;;16.02;10.07;;;;;;;;;;6173393;23;20009;-75
2022/10/25 00:46:18;;;;;;;16.38;9.38;;;;;;;;;;6173743;23;20012;-76
2022/10/25 00:49:00;;;;;;;21.23;10.02;;;;;;;;;;6197461;23;20017;-74
2022/10/25 00:51:36;;;;;;;20.45;11.02;;;;;;;;;;6192171;23;20017;-74
2022/10/25 00:54:01;;;;;;;28.02;12.45;;;;;;;;;;6191197;23;20064;-74
2022/10/25 00:56:28;;;;;;;19.77;11.23;;;;;;;;;;6182649;23;20035;-74
2022/10/25 00:58:56;;;;;;;19.23;11.45;;;;;;;;;;6154405;23;20029;-72
2022/10/25 01:01:22;;;;;;;16.33;9.68;;;;;;;;;;6179038;23;20021;-74
2022/10/25 01:03:48;;;;;;;19.55;10.63;;;;;;;;;;6130869;23;20525;-74
2022/10/25 01:06:21;;;;;;;19.33;9.52;;;;;;;;;;6155509;23;20108;-74
2022/10/25 01:08:47;;;;;;;22.50;12.63;;;;;;;;;;6182449;23;20016;-74
2022/10/25 01:11:13;;;;;;;20.35;12.45;;;;;;;;;;6155821;23;20472;-74
2022/10/25 01:13:39;;;;;;;21.98;12.63;;;;;;;;;;6156308;23;20017;-75
2022/10/25 01:16:24;;;;;;;30.05;12.15;;;;;;;;;;6182767;23;20013;-79
2022/10/25 01:18:54;;;;;;;29.23;11.77;;;;;;;;;;6182418;23;20013;-77
2022/10/25 01:21:23;;;;;;;29.33;13.52;;;;;;;;;;6181659;23;20021;-77
2022/10/25 01:23:56;;;;;;;27.52;13.30;;;;;;;;;;6182663;23;20012;-77
2022/10/25 01:26:27;;;;;;;39.33;14.82;;;;;;;;;;6182002;23;20477;-77
2022/10/25 01:29:02;;;;;;;25.15;14.32;;;;;;;;;;6182400;23;20069;-77
2022/10/25 01:31:47;;;;;;;43.55;15.93;;;;;;;;;;6181809;23;20013;-76
2022/10/25 01:34:15;;;;;;;29.05;13.15;;;;;;;;;;6182429;23;20045;-76
2022/10/25 01:36:57;;;;;;;30.25;15.18;;;;;;;;;;6156118;23;20410;-77
2022/10/25 01:39:29;;;;;;;31.27;13.90;;;;;;;;;;6156038;23;20013;-77
2022/10/25 01:42:00;;;;;;;20.58;12.85;;;;;;;;;;6182349;23;20116;-77
2022/10/25 01:44:35;;;;;;;27.77;14.37;;;;;;;;;;6156224;23;20347;-76
2022/10/25 01:47:02;;;;;;;39.63;13.88;;;;;;;;;;6188907;23;20259;-77
2022/10/25 01:49:48;;;;;;;29.85;13.38;;;;;;;;;;6167523;23;20020;-77
2022/10/25 01:52:14;;;;;;;32.13;12.00;;;;;;;;;;6182214;23;20024;-76
2022/10/25 01:54:40;;;;;;;24.35;13.35;;;;;;;;;;6155498;23;20096;-76
2022/10/25 01:57:09;;;;;;;26.08;12.52;;;;;;;;;;6181933;23;20048;-76
2022/10/25 01:59:42;;;;;;;25.30;12.15;;;;;;;;;;6181793;23;20021;-76
2022/10/25 02:02:13;;;;;;;22.85;12.80;;;;;;;;;;6155778;23;20520;-75
2022/10/25 02:04:57;;;;;;;23.65;10.95;;;;;;;;;;6181816;23;20426;-76
2022/10/25 02:07:41;;;;;;;24.02;11.52;;;;;;;;;;6181598;23;20047;-76
2022/10/25 02:10:07;;;;;;;27.77;11.00;;;;;;;;;;6181889;23;20488;-75
2022/10/25 02:12:54;;;;;;;25.02;12.38;;;;;;;;;;6181883;23;20009;-75
2022/10/25 02:15:21;;;;;;;27.67;13.23;;;;;;;;;;6179546;23;20403;-75
2022/10/25 02:17:58;;;;;;;18.33;12.18;;;;;;;;;;6131428;23;20048;-76
2022/10/25 02:20:24;;;;;;;16.80;9.73;;;;;;;;;;6154839;23;20061;-75
2022/10/25 02:22:50;;;;;;;20.45;10.82;;;;;;;;;;6181719;23;20017;-74
2022/10/25 02:25:16;;;;;;;21.02;11.73;;;;;;;;;;6155809;23;20092;-76
2022/10/25 02:27:42;;;;;;;28.50;12.18;;;;;;;;;;6155944;23;20076;-75
2022/10/25 02:30:08;;;;;;;18.23;12.68;;;;;;;;;;6182087;23;20020;-76
2022/10/25 02:32:34;;;;;;;22.45;10.85;;;;;;;;;;6181453;23;20009;-74
2022/10/25 02:35:00;;;;;;;25.15;12.40;;;;;;;;;;6181991;23;20060;-73
2022/10/25 02:37:26;;;;;;;18.50;11.15;;;;;;;;;;6181237;23;20012;-74
2022/10/25 02:39:52;;;;;;;19.15;11.82;;;;;;;;;;6181704;23;20013;-76
2022/10/25 02:42:18;;;;;;;27.08;11.45;;;;;;;;;;6181487;23;20157;-75
2022/10/25 02:44:44;;;;;;;18.63;11.68;;;;;;;;;;6182094;23;20051;-76
2022/10/25 02:47:10;;;;;;;16.38;11.52;;;;;;;;;;6155268;23;20039;-76
2022/10/25 02:49:36;;;;;;;24.17;12.25;;;;;;;;;;6155208;23;20036;-75
2022/10/25 02:52:02;;;;;;;24.98;10.98;;;;;;;;;;6155078;23;20454;-76
2022/10/25 02:54:28;;;;;;;23.60;11.23;;;;;;;;;;6181767;23;20406;-76
2022/10/25 02:56:54;;;;;;;16.77;8.43;;;;;;;;;;6130672;23;20060;-76
2022/10/25 02:59:20;;;;;;;14.38;9.43;;;;;;;;;;6180945;23;20465;-76
2022/10/25 03:01:46;;;;;;;17.23;8.88;;;;;;;;;;6181439;23;20461;-77
2022/10/25 03:04:12;;;;;;;20.83;10.55;;;;;;;;;;6181738;23;20009;-76
2022/10/25 03:06:38;;;;;;;20.70;11.30;;;;;;;;;;6154908;23;20108;-76
2022/10/25 03:09:04;;;;;;;15.88;10.35;;;;;;;;;;6182123;23;20009;-75
2022/10/25 03:11:30;;;;;;;20.23;10.88;;;;;;;;;;6181353;23;20019;-75
2022/10/25 03:13:56;;;;;;;20.58;9.65;;;;;;;;;;6155662;23;20024;-75
2022/10/25 03:16:22;;;;;;;15.52;10.00;;;;;;;;;;6181826;23;20041;-76
2022/10/25 03:18:48;;;;;;;16.52;10.23;;;;;;;;;;6182067;23;20013;-77
2022/10/25 03:21:14;;;;;;;21.48;11.27;;;;;;;;;;6181731;23;20488;-77
2022/10/25 03:23:40;;;;;;;25.92;10.48;;;;;;;;;;6181333;23;20009;-76
2022/10/25 03:26:06;;;;;;;15.55;10.50;;;;;;;;;;6181923;23;20021;-75
2022/10/25 03:28:32;;;;;;;16.73;11.35;;;;;;;;;;6180854;23;20122;-76
2022/10/25 03:30:58;;;;;;;23.67;11.30;;;;;;;;;;6181321;23;20023;-76
2022/10/25 03:33:24;;;;;;;17.05;10.63;;;;;;;;;;6181084;23;20009;-76
2022/10/25 03:35:53;;;;;;;28.13;12.43;;;;;;;;;;6181261;23;20471;-78
2022/10/25 03:38:19;;;;;;;21.35;12.15;;;;;;;;;;6161664;23;20032;-81
2022/10/25 03:40:45;;;;;;;23.23;13.30;;;;;;;;;;6199996;23;20025;-82
2022/10/25 03:43:11;;;;;;;24.58;12.27;;;;;;;;;;6208357;23;19993;-83
2022/10/25 03:45:37;;;;;;;17.45;12.63;;;;;;;;;;6184358;23;20016;-82
2022/10/25 03:48:03;;;;;;;24.98;14.43;;;;;;;;;;6211712;23;20040;-79
2022/10/25 03:50:29;;;;;;;82.32;16.00;;;;;;;;;;6212050;23;20008;-82
2022/10/25 03:52:55;;;;;;;20.35;13.95;;;;;;;;;;6209109;23;20053;-83
2022/10/25 03:55:21;;;;;;;28.30;14.13;;;;;;;;;;6194891;23;20032;-82
2022/10/25 03:57:47;;;;;;;29.27;13.73;;;;;;;;;;6194518;23;20025;-85
2022/10/25 04:00:13;;;;;;;23.95;13.63;;;;;;;;;;6166271;23;20124;-82
2022/10/25 04:02:39;;;;;;;27.48;13.38;;;;;;;;;;6193632;23;20032;-82
2022/10/25 04:05:05;;;;;;;26.63;12.88;;;;;;;;;;6197409;23;20013;-83
2022/10/25 04:07:31;;;;;;;21.48;12.05;;;;;;;;;;6200488;23;20045;-84
2022/10/25 04:09:57;;;;;;;26.95;12.75;;;;;;;;;;6177144;23;19999;-85
2022/10/25 04:12:23;;;;;;;19.02;12.45;;;;;;;;;;6202942;23;20021;-82
2022/10/25 04:14:49;;;;;;;19.08;12.38;;;;;;;;;;6201785;23;20020;-84
2022/10/25 04:17:15;;;;;;;23.13;12.10;;;;;;;;;;6173730;23;20101;-83
2022/10/25 04:19:41;;;;;;;17.55;12.20;;;;;;;;;;6173319;23;20482;-82
2022/10/25 04:22:06;;;;;;;19.08;12.02;;;;;;;;;;6146481;23;20029;-82
2022/10/25 04:24:33;;;;;;;18.52;11.88;;;;;;;;;;6201789;23;20004;-83
2022/10/25 04:26:59;;;;;;;17.95;12.40;;;;;;;;;;6207697;23;20013;-84
2022/10/25 04:29:25;;;;;;;17.48;12.25;;;;;;;;;;6179437;23;20003;-82
2022/10/25 04:31:51;;;;;;;20.33;12.75;;;;;;;;;;6178309;23;20038;-84
2022/10/25 04:34:17;;;;;;;17.05;11.15;;;;;;;;;;6178897;23;20052;-83
2022/10/25 04:36:43;;;;;;;25.63;12.45;;;;;;;;;;6204626;23;20009;-82
2022/10/25 04:39:09;;;;;;;21.05;12.52;;;;;;;;;;6208007;23;20028;-83
2022/10/25 04:41:35;;;;;;;31.58;11.80;;;;;;;;;;6183561;23;20056;-83
2022/10/25 04:44:01;;;;;;;17.30;11.38;;;;;;;;;;6208722;23;20044;-84
2022/10/25 04:46:27;;;;;;;20.73;11.27;;;;;;;;;;6178740;23;20073;-84
2022/10/25 04:48:53;;;;;;;16.55;11.32;;;;;;;;;;6201518;23;20020;-83
2022/10/25 04:51:19;;;;;;;23.88;11.10;;;;;;;;;;6176471;23;20012;-84
2022/10/25 04:53:44;;;;;;;24.40;10.43;;;;;;;;;;6177018;23;20045;-83
2022/10/25 04:56:11;;;;;;;15.23;9.13;;;;;;;;;;6154664;23;20016;-85
2022/10/25 04:58:38;;;;;;;12.95;8.27;;;;;;;;;;6151327;23;20335;-83
2022/10/25 05:01:05;;;;;;;22.75;11.00;;;;;;;;;;6176797;23;20021;-82
2022/10/25 05:03:31;;;;;;;19.15;10.90;;;;;;;;;;6202033;23;20012;-83
2022/10/25 05:06:24;;;;;;;19.55;11.27;;;;;;;;;;6176352;23;20053;-83
2022/10/25 05:08:50;;;;;;;25.00;10.63;;;;;;;;;;6170509;23;20013;-85
2022/10/25 05:11:17;;;;;;;20.38;11.35;;;;;;;;;;6176585;23;20023;-84
2022/10/25 05:13:43;;;;;;;16.50;12.73;;;;;;;;;;6126112;23;20009;-81
2022/10/25 05:16:23;;;;;;;21.10;12.80;;;;;;;;;;6200304;23;20023;-84
2022/10/25 05:18:49;;;;;;;31.65;14.65;;;;;;;;;;6200612;23;20145;-86
2022/10/25 05:21:15;;;;;;;23.05;12.80;;;;;;;;;;6184494;23;20020;-86
2022/10/25 05:23:41;;;;;;;22.65;13.57;;;;;;;;;;6186450;23;20024;-86
2022/10/25 05:26:11;;;;;;;19.33;12.88;;;;;;;;;;6212554;23;20017;-85
2022/10/25 05:28:37;;;;;;;20.90;10.80;;;;;;;;;;6160460;23;20081;-85
2022/10/25 05:31:03;;;;;;;21.45;12.90;;;;;;;;;;6184521;23;20024;-87
2022/10/25 05:33:29;;;;;;;29.80;19.58;;;;;;;;;;6209666;23;20009;-84
2022/10/25 05:35:55;;;;;;;32.92;18.10;;;;;;;;;;6209420;23;20060;-84
2022/10/25 05:38:21;;;;;;;30.52;17.90;;;;;;;;;;6207854;23;20013;-81
2022/10/25 05:40:52;;;;;;;24.98;13.57;;;;;;;;;;6168121;23;20049;-81
2022/10/25 05:43:18;;;;;;;26.02;15.52;;;;;;;;;;6134442;23;20028;-81
2022/10/25 05:45:44;;;;;;;27.55;15.82;;;;;;;;;;6183667;23;20057;-81
2022/10/25 05:48:10;;;;;;;31.30;16.35;;;;;;;;;;6158260;23;20454;-77
2022/10/25 05:50:37;;;;;;;20.42;13.70;;;;;;;;;;6155494;23;20024;-82
2022/10/25 05:53:03;;;;;;;20.45;12.52;;;;;;;;;;6180458;23;20020;-77
2022/10/25 05:55:29;;;;;;;17.70;9.63;;;;;;;;;;6176940;23;20009;-71
2022/10/25 05:57:55;;;;;;;22.08;13.70;;;;;;;;;;6179256;23;20218;-73
2022/10/25 06:00:21;;;;;;;24.45;13.70;;;;;;;;;;6153232;23;20454;-73
2022/10/25 06:02:47;;;;;;;25.35;14.48;;;;;;;;;;6178265;23;20045;-73
2022/10/25 06:05:13;;;;;;;24.42;14.10;;;;;;;;;;6179962;23;20019;-72
2022/10/25 06:07:39;;;;;;;21.67;12.50;;;;;;;;;;6178982;23;20052;-72
2022/10/25 06:10:05;;;;;;;24.85;13.77;;;;;;;;;;6178998;23;20024;-73
2022/10/25 06:12:31;;;;;;;29.02;15.25;;;;;;;;;;6179278;23;20020;-73
2022/10/25 06:14:57;;;;;;;35.38;15.95;;;;;;;;;;6179090;23;20013;-72
2022/10/25 06:17:23;;;;;;;25.83;15.40;;;;;;;;;;6179770;23;20395;-71
2022/10/25 06:19:49;;;;;;;23.33;11.07;;;;;;;;;;6179211;23;20009;-72
2022/10/25 06:22:15;;;;;;;16.13;9.27;;;;;;;;;;6153420;23;20017;-71
2022/10/25 06:24:41;;;;;;;14.85;10.80;;;;;;;;;;6179016;23;20135;-72
2022/10/25 06:27:07;;;;;;;11.82;9.57;;;;;;;;;;6179712;23;20023;-73
2022/10/25 06:29:33;;;;;;;11.63;10.40;;;;;;;;;;6153216;23;20064;-72
2022/10/25 06:31:59;;;;;;;20.20;10.88;;;;;;;;;;6180449;23;20015;-73
2022/10/25 06:34:25;;;;;;;15.27;10.48;;;;;;;;;;6153309;23;20501;-73
2022/10/25 06:36:51;;;;;;;14.60;9.70;;;;;;;;;;6128429;23;20017;-72
2022/10/25 06:39:17;;;;;;;18.38;10.45;;;;;;;;;;6179714;23;20036;-72
2022/10/25 06:41:43;;;;;;;22.50;11.18;;;;;;;;;;6152646;23;20053;-72
2022/10/25 06:44:09;;;;;;;20.80;11.75;;;;;;;;;;6179984;23;20020;-72
2022/10/25 06:46:36;;;;;;;18.85;11.27;;;;;;;;;;6179090;23;20021;-74
2022/10/25 06:49:04;;;;;;;13.07;10.40;;;;;;;;;;6179579;23;20476;-73
2022/10/25 06:51:31;;;;;;;15.60;9.77;;;;;;;;;;6179671;23;20346;-73
2022/10/25 06:53:58;;;;;;;18.92;10.68;;;;;;;;;;6180016;23;20335;-74
2022/10/25 06:56:24;;;;;;;15.95;10.05;;;;;;;;;;6152828;23;20329;-74
2022/10/25 06:58:50;;;;;;;20.27;11.30;;;;;;;;;;6178920;23;20056;-73
2022/10/25 07:01:17;;;;;;;27.30;16.02;;;;;;;;;;6152955;23;20029;-73
2022/10/25 07:03:42;;;;;;;11.75;9.98;;;;;;;;;;6178987;23;20087;-73
2022/10/25 07:06:09;;;;;;;15.07;9.70;;;;;;;;;;6179515;23;20020;-72
2022/10/25 07:08:39;;;;;;;14.88;9.18;;;;;;;;;;6179370;23;20055;-72
2022/10/25 07:11:05;;;;;;;10.93;9.05;;;;;;;;;;6153566;23;20072;-73
2022/10/25 07:13:31;;;;;;;12.93;8.77;;;;;;;;;;6153348;23;20040;-73
2022/10/25 07:16:04;;;;;;;12.90;8.80;;;;;;;;;;6179431;23;20013;-73
2022/10/25 07:18:30;;;;;;;14.80;8.85;;;;;;;;;;6152637;23;20359;-73
2022/10/25 07:21:06;;;;;;;9.48;7.65;;;;;;;;;;6128240;23;20036;-73
2022/10/25 07:23:32;;;;;;;16.48;8.05;;;;;;;;;;6179499;23;20446;-72
2022/10/25 07:25:58;;;;;;;9.15;7.95;;;;;;;;;;6152995;23;20464;-74
2022/10/25 07:28:24;;;;;;;11.40;8.02;;;;;;;;;;6179179;23;20037;-75
2022/10/25 07:30:50;;;;;;;18.73;8.75;;;;;;;;;;6179442;23;20032;-74
2022/10/25 07:33:16;;;;;;;12.20;7.70;;;;;;;;;;6153160;23;20017;-74
2022/10/25 07:35:49;;;;;;;20.30;9.52;;;;;;;;;;6128521;23;20020;-72
2022/10/25 07:38:15;;;;;;;13.20;8.50;;;;;;;;;;6179951;23;20045;-75
2022/10/25 07:40:41;;;;;;;19.13;12.18;;;;;;;;;;6174602;23;20025;-74
2022/10/25 07:43:06;;;;;;;21.70;13.50;;;;;;;;;;6126776;23;20024;-73
2022/10/25 07:45:32;;;;;;;15.65;10.15;;;;;;;;;;6178630;23;20041;-73
2022/10/25 07:47:58;;;;;;;19.25;10.77;;;;;;;;;;6128284;23;20013;-74
2022/10/25 07:50:24;;;;;;;12.32;7.50;;;;;;;;;;6179163;23;20028;-73
2022/10/25 07:52:50;;;;;;;10.45;6.65;;;;;;;;;;6178762;23;20013;-72
2022/10/25 07:55:16;;;;;;;9.77;6.93;;;;;;;;;;6179121;23;20410;-73
2022/10/25 07:57:42;;;;;;;14.65;8.23;;;;;;;;;;6152091;23;20016;-73
2022/10/25 08:00:08;;;;;;;19.45;12.70;;;;;;;;;;6179101;23;20067;-72
2022/10/25 08:02:34;;;;;;;9.45;6.47;;;;;;;;;;6178540;23;20346;-73
2022/10/25 08:05:01;;;;;;;9.65;6.53;;;;;;;;;;6153078;23;20075;-73
2022/10/25 08:07:27;;;;;;;10.35;6.60;;;;;;;;;;6178921;23;20449;-74
2022/10/25 08:09:53;;;;;;;8.65;6.47;;;;;;;;;;6178798;23;20854;-73
2022/10/25 08:12:19;;;;;;;7.25;6.45;;;;;;;;;;6178819;23;20099;-74
2022/10/25 08:14:45;;;;;;;6.60;5.97;;;;;;;;;;6152177;23;20040;-73
2022/10/25 08:17:11;;;;;;;10.43;7.13;;;;;;;;;;6178369;23;20024;-73
2022/10/25 08:19:37;;;;;;;11.77;8.38;;;;;;;;;;6178536;23;20618;-72
2022/10/25 08:22:03;;;;;;;9.77;7.72;;;;;;;;;;6179044;23;20024;-71
2022/10/25 08:24:31;;;;;;;15.10;6.13;;;;;;;;;;6127797;23;20041;-73
2022/10/25 08:26:57;;;;;;;6.65;6.05;;;;;;;;;;6152600;23;20024;-72
2022/10/25 08:29:25;;;;;;;11.40;7.25;;;;;;;;;;6178749;23;20008;-74
2022/10/25 08:31:50;;;;;;;11.55;7.80;;;;;;;;;;6180887;23;20013;-73
2022/10/25 08:34:16;;;;;;;10.65;7.45;;;;;;;;;;6134886;23;20013;-72
2022/10/25 08:36:42;;;;;;;8.80;6.30;;;;;;;;;;6134622;23;20017;-74
2022/10/25 08:39:08;;;;;;;10.63;6.28;;;;;;;;;;6158025;23;20021;-72
2022/10/25 08:41:53;;;;;;;9.05;6.70;;;;;;;;;;6178108;23;20021;-73
2022/10/25 08:44:27;;;;;;;8.23;6.38;;;;;;;;;;6152729;23;20553;-75
2022/10/25 08:46:54;;;;;;;9.18;6.38;;;;;;;;;;6127641;23;20080;-73
2022/10/25 08:49:25;;;;;;;8.93;6.60;;;;;;;;;;6152746;23;20358;-73
2022/10/25 08:51:52;;;;;;;8.30;6.13;;;;;;;;;;6151576;23;20064;-71
2022/10/25 08:54:36;;;;;;;10.82;6.90;;;;;;;;;;6152830;23;20593;-73
2022/10/25 08:57:22;;;;;;;8.98;6.30;;;;;;;;;;6179012;23;20067;-73
2022/10/25 08:59:52;;;;;;;8.75;5.78;;;;;;;;;;6178173;23;20477;-73
2022/10/25 09:02:22;;;;;;;5.87;5.27;;;;;;;;;;6151157;23;20501;-73
2022/10/25 09:04:48;;;;;;;14.27;6.70;;;;;;;;;;6127427;23;20051;-71
2022/10/25 09:07:22;;;;;;;9.68;5.72;;;;;;;;;;6127283;23;20013;-72
2022/10/25 09:09:58;;;;;;;7.50;6.00;;;;;;;;;;6127883;23;20013;-72
2022/10/25 09:12:38;;;;;;;8.52;5.78;;;;;;;;;;6152711;23;20022;-72
2022/10/25 09:15:22;;;;;;;6.07;5.47;;;;;;;;;;6178925;23;20450;-72
2022/10/25 09:17:49;;;;;;;6.90;5.75;;;;;;;;;;6178372;23;20403;-73
2022/10/25 09:20:18;;;;;;;7.03;6.35;;;;;;;;;;6179635;23;20104;-72
2022/10/25 09:22:44;;;;;;;6.57;5.72;;;;;;;;;;6153377;23;20651;-71
2022/10/25 09:25:25;;;;;;;11.43;6.05;;;;;;;;;;6180861;23;20062;-72
2022/10/25 09:27:51;;;;;;;;;;;;;;;;;;6181078;23;20359;-71
2022/10/25 09:30:18;;;;;;;4.72;4.32;;;;;;;;;;6182749;23;19962;-72
2022/10/25 09:32:47;;;;;;;8.35;5.25;;;;;;;;;;6181293;23;20013;-73
2022/10/25 09:35:17;;;;;;;7.28;5.60;;;;;;;;;;6155544;23;20092;-72
2022/10/25 09:37:47;;;;;;;6.47;5.40;;;;;;;;;;6155375;23;20039;-73
2022/10/25 09:40:14;;;;;;;4.68;4.03;;;;;;;;;;6118599;23;20092;-72
2022/10/25 09:42:45;;;;;;;7.55;5.95;;;;;;;;;;6154395;23;20052;-71
2022/10/25 09:45:44;;;;;;;7.60;6.03;;;;;;;;;;6130790;23;20013;-71
2022/10/25 09:48:16;;;;;;;17.45;8.50;;;;;;;;;;6138037;23;20113;-72
2022/10/25 09:50:48;;;;;;;8.52;5.03;;;;;;;;;;6181104;23;20405;-71
2022/10/25 09:53:14;;;;;;;10.13;4.60;;;;;;;;;;6155760;23;20107;-72
2022/10/25 09:55:50;;;;;;;6.35;5.55;;;;;;;;;;6154888;23;20031;-75
